Time;durP1;ratioP1;P1;durP2;ratioP2;P2;SDS_P1;SDS_P2;PMS_P1;PMS_P2;Temp;Humidity;BMP_temperature;BMP_pressure;BME280_temperature;BME280_humidity;BME280_pressure;Samples;Min_cycle;Max_cycle;Signal;HPM_P1;HPM_P2
2022/09/15 00:01:52;;;;;;;27.33;15.07;;;12.80;99.90;;;;;;5055110;28;20201;-59
2022/09/15 00:04:19;;;;;;;33.07;15.70;;;12.80;99.90;;;;;;5055214;28;20267;-57
2022/09/15 00:06:45;;;;;;;33.20;14.93;;;12.70;99.90;;;;;;5054660;28;20717;-59
2022/09/15 00:09:12;;;;;;;36.83;15.97;;;12.70;99.90;;;;;;5055706;28;20263;-60
2022/09/15 00:11:39;;;;;;;37.17;15.73;;;12.70;99.90;;;;;;5054732;28;20267;-60
2022/09/15 00:14:07;;;;;;;31.70;15.40;;;12.70;99.90;;;;;;5055053;28;20205;-59
2022/09/15 00:16:35;;;;;;;38.20;17.53;;;12.70;99.90;;;;;;5054672;28;20236;-60
2022/09/15 00:19:03;;;;;;;34.53;16.37;;;12.70;99.90;;;;;;5054628;28;20202;-59
2022/09/15 00:21:32;;;;;;;32.30;15.20;;;12.60;99.90;;;;;;5054283;28;20209;-59
2022/09/15 00:23:59;;;;;;;34.00;15.73;;;12.60;99.90;;;;;;5054529;28;20226;-59
2022/09/15 00:26:30;;;;;;;36.13;15.93;;;12.60;99.90;;;;;;5054374;28;20221;-59
2022/09/15 00:28:58;;;;;;;35.27;16.07;;;12.60;99.90;;;;;;5054521;28;20214;-60
2022/09/15 00:31:27;;;;;;;32.93;16.20;;;12.60;99.90;;;;;;5054479;28;20205;-60
2022/09/15 00:33:58;;;;;;;34.57;15.70;;;12.60;99.90;;;;;;5054583;28;20209;-60
2022/09/15 00:36:26;;;;;;;37.40;16.73;;;12.50;99.90;;;;;;5054333;28;20225;-60
2022/09/15 00:38:53;;;;;;;31.10;16.83;;;12.50;99.90;;;;;;5053954;28;20676;-59
2022/09/15 00:41:21;;;;;;;32.17;16.13;;;12.50;99.90;;;;;;5054052;28;20206;-60
2022/09/15 00:43:51;;;;;;;31.90;16.20;;;12.40;99.90;;;;;;5054068;28;20222;-60
2022/09/15 00:46:20;;;;;;;51.63;16.83;;;12.40;99.90;;;;;;5053825;28;20252;-59
2022/09/15 00:48:51;;;;;;;29.93;15.53;;;12.40;99.90;;;;;;5053895;28;20209;-60
2022/09/15 00:51:24;;;;;;;33.73;15.53;;;12.40;99.90;;;;;;5054026;28;20206;-60
2022/09/15 00:53:53;;;;;;;31.07;16.27;;;12.40;99.90;;;;;;5053440;28;20730;-60
2022/09/15 00:56:21;;;;;;;31.87;15.07;;;12.30;99.90;;;;;;5053459;28;20228;-60
2022/09/15 00:58:53;;;;;;;33.43;14.50;;;12.30;99.90;;;;;;5053206;28;20270;-60
2022/09/15 01:01:20;;;;;;;35.97;15.47;;;12.30;99.90;;;;;;5054130;28;20213;-57
2022/09/15 01:03:47;;;;;;;32.33;15.47;;;12.30;99.90;;;;;;5053735;28;20299;-59
2022/09/15 01:06:21;;;;;;;35.03;16.43;;;12.30;99.90;;;;;;5053399;28;20302;-60
2022/09/15 01:08:53;;;;;;;29.00;15.60;;;12.20;99.90;;;;;;5053299;28;20217;-60
2022/09/15 01:11:21;;;;;;;36.43;15.43;;;12.20;99.90;;;;;;5053270;28;20266;-60
2022/09/15 01:13:47;;;;;;;35.10;15.17;;;12.20;99.90;;;;;;5053412;28;20622;-60
2022/09/15 01:16:20;;;;;;;32.77;15.67;;;12.20;99.90;;;;;;5052918;28;20765;-60
2022/09/15 01:18:58;;;;;;;34.07;14.93;;;12.20;99.90;;;;;;5053294;28;20209;-60
2022/09/15 01:21:35;;;;;;;27.27;14.87;;;12.10;99.90;;;;;;5053156;28;20208;-58
2022/09/15 01:24:33;;;;;;;31.77;14.43;;;12.10;99.90;;;;;;5053066;28;20221;-60
2022/09/15 01:27:08;;;;;;;33.70;15.70;;;12.10;99.90;;;;;;5052913;28;20302;-58
2022/09/15 01:30:07;;;;;;;35.30;15.47;;;12.00;99.90;;;;;;5053005;28;20699;-59
2022/09/15 01:33:05;;;;;;;37.60;16.20;;;12.00;99.90;;;;;;5047978;28;20210;-60
2022/09/15 01:35:51;;;;;;;35.87;16.00;;;12.00;99.90;;;;;;5052641;28;20256;-60
2022/09/15 01:38:36;;;;;;;35.27;17.03;;;11.90;99.90;;;;;;5053002;28;20209;-59
2022/09/15 01:41:08;;;;;;;36.03;16.43;;;11.90;99.90;;;;;;5052967;28;20206;-59
2022/09/15 01:43:39;;;;;;;38.20;16.53;;;11.90;99.90;;;;;;5053141;28;20252;-60
2022/09/15 01:46:07;;;;;;;41.07;16.07;;;11.90;99.90;;;;;;5052384;28;20225;-60
2022/09/15 01:48:37;;;;;;;51.43;17.60;;;11.90;99.90;;;;;;5053016;28;20207;-59
2022/09/15 01:51:06;;;;;;;44.83;17.70;;;11.90;99.90;;;;;;5052034;28;20357;-59
2022/09/15 01:53:34;;;;;;;43.90;17.63;;;11.80;99.90;;;;;;5052714;28;20684;-60
2022/09/15 01:56:05;;;;;;;43.13;17.50;;;11.80;99.90;;;;;;5052190;28;20270;-60
2022/09/15 01:58:32;;;;;;;40.63;18.63;;;11.90;99.90;;;;;;5052706;28;20558;-59
2022/09/15 02:01:03;;;;;;;42.37;18.67;;;11.90;99.90;;;;;;5052455;28;20213;-60
2022/09/15 02:03:36;;;;;;;46.73;18.00;;;11.90;99.90;;;;;;5052218;28;20204;-59
2022/09/15 02:06:10;;;;;;;48.23;17.20;;;11.90;99.90;;;;;;5052340;28;20237;-60
2022/09/15 02:08:41;;;;;;;41.97;16.70;;;11.90;99.90;;;;;;5052219;28;20369;-59
2022/09/15 02:11:15;;;;;;;38.27;17.20;;;11.80;99.90;;;;;;5052178;28;20205;-56
2022/09/15 02:13:47;;;;;;;41.83;17.33;;;11.90;99.90;;;;;;5052262;28;20222;-60
2022/09/15 02:16:18;;;;;;;41.27;18.60;;;11.90;99.90;;;;;;5052321;28;20228;-59
2022/09/15 02:19:08;;;;;;;46.00;17.87;;;11.90;99.90;;;;;;5052372;28;20327;-60
2022/09/15 02:21:43;;;;;;;37.33;16.97;;;11.90;99.90;;;;;;5052648;28;20202;-57
2022/09/15 02:24:15;;;;;;;41.30;18.33;;;11.90;99.90;;;;;;5052322;28;20244;-59
2022/09/15 02:26:43;;;;;;;47.13;18.97;;;11.90;99.90;;;;;;5052303;28;20227;-58
2022/09/15 02:29:14;;;;;;;51.80;19.67;;;11.80;99.90;;;;;;5052334;28;20219;-59
2022/09/15 02:31:43;;;;;;;48.40;19.93;;;11.90;99.90;;;;;;5052491;28;20202;-57
2022/09/15 02:34:16;;;;;;;49.40;19.70;;;11.90;99.90;;;;;;5052362;28;20738;-59
2022/09/15 02:36:44;;;;;;;49.10;20.80;;;11.90;99.90;;;;;;5051818;28;20278;-59
2022/09/15 02:39:15;;;;;;;51.60;19.73;;;12.00;99.90;;;;;;5052373;28;20203;-56
2022/09/15 02:41:42;;;;;;;57.50;21.83;;;11.90;99.90;;;;;;5052213;28;20271;-58
2022/09/15 02:44:09;;;;;;;57.80;21.30;;;12.00;99.90;;;;;;5052223;28;20206;-58
2022/09/15 02:46:36;;;;;;;58.73;20.70;;;12.00;99.90;;;;;;5051995;28;20275;-59
2022/09/15 02:49:03;;;;;;;62.17;21.90;;;12.00;99.90;;;;;;5051843;28;20216;-59
2022/09/15 02:51:31;;;;;;;52.73;21.57;;;12.00;99.90;;;;;;5051638;28;20252;-58
2022/09/15 02:53:57;;;;;;;55.87;21.73;;;11.90;99.90;;;;;;5051758;28;20206;-58
2022/09/15 02:56:24;;;;;;;66.20;21.93;;;12.00;99.90;;;;;;5051691;28;20230;-57
2022/09/15 02:58:51;;;;;;;60.23;22.53;;;11.90;99.90;;;;;;5051915;28;20219;-59
2022/09/15 03:01:17;;;;;;;54.90;21.70;;;12.00;99.90;;;;;;5052036;28;20559;-59
2022/09/15 03:03:45;;;;;;;64.70;22.07;;;12.00;99.90;;;;;;5055078;28;20210;-59
2022/09/15 03:06:20;;;;;;;56.90;22.60;;;12.00;99.90;;;;;;5055554;28;20291;-59
2022/09/15 03:08:50;;;;;;;59.67;21.80;;;12.10;99.90;;;;;;5056054;28;20272;-58
2022/09/15 03:11:19;;;;;;;59.53;22.30;;;12.10;99.90;;;;;;5055981;28;20653;-58
2022/09/15 03:13:46;;;;;;;56.90;22.43;;;12.00;99.90;;;;;;5055608;28;20210;-59
2022/09/15 03:16:15;;;;;;;62.13;23.13;;;12.00;99.90;;;;;;5055474;28;20654;-59
2022/09/15 03:18:42;;;;;;;64.27;22.63;;;12.10;99.90;;;;;;5055674;28;20210;-60
2022/09/15 03:21:12;;;;;;;60.30;22.27;;;12.10;99.90;;;;;;5055420;28;20639;-60
2022/09/15 03:23:39;;;;;;;59.53;22.10;;;12.10;99.90;;;;;;5055379;28;20676;-60
2022/09/15 03:26:09;;;;;;;69.83;24.83;;;12.10;99.90;;;;;;5055128;28;20289;-59
2022/09/15 03:28:36;;;;;;;75.80;24.97;;;12.10;99.90;;;;;;5055125;28;20721;-59
2022/09/15 03:31:03;;;;;;;68.90;25.13;;;12.20;99.90;;;;;;5055104;28;20613;-60
2022/09/15 03:33:30;;;;;;;55.87;23.77;;;12.20;99.90;;;;;;5055347;28;20283;-59
2022/09/15 03:35:57;;;;;;;61.57;23.43;;;12.20;99.90;;;;;;5055082;28;20279;-59
2022/09/15 03:38:24;;;;;;;59.07;22.90;;;12.30;99.90;;;;;;5055315;28;20201;-60
2022/09/15 03:40:59;;;;;;;58.77;23.03;;;12.30;99.90;;;;;;5055008;28;20741;-59
2022/09/15 03:43:27;;;;;;;64.13;23.53;;;12.30;99.90;;;;;;5055046;28;20254;-59
2022/09/15 03:45:54;;;;;;;65.70;24.67;;;12.40;99.90;;;;;;5054510;28;20287;-60
2022/09/15 03:48:21;;;;;;;60.93;24.80;;;12.40;99.90;;;;;;5055196;28;20260;-60
2022/09/15 03:50:48;;;;;;;68.50;24.17;;;12.40;99.90;;;;;;5054705;28;20223;-60
2022/09/15 03:53:15;;;;;;;71.97;25.57;;;12.40;99.90;;;;;;5054796;28;20559;-60
2022/09/15 03:55:42;;;;;;;63.83;23.93;;;12.50;99.90;;;;;;5054837;28;20644;-60
2022/09/15 03:58:08;;;;;;;70.33;24.33;;;12.50;99.90;;;;;;5054580;28;20228;-59
2022/09/15 04:00:36;;;;;;;68.83;24.60;;;12.60;99.90;;;;;;5054713;28;20608;-60
2022/09/15 04:03:03;;;;;;;59.93;24.33;;;12.60;99.90;;;;;;5054758;28;20209;-60
2022/09/15 04:05:29;;;;;;;70.57;24.47;;;12.60;99.90;;;;;;5054264;28;20744;-59
2022/09/15 04:07:56;;;;;;;65.53;24.30;;;12.60;99.90;;;;;;5053978;28;20206;-60
2022/09/15 04:10:23;;;;;;;62.00;24.20;;;12.70;99.90;;;;;;5054547;28;20205;-58
2022/09/15 04:12:51;;;;;;;61.60;22.53;;;12.70;99.90;;;;;;5054231;28;20213;-60
2022/09/15 04:15:18;;;;;;;61.63;23.80;;;12.70;99.90;;;;;;5054178;28;20598;-59
2022/09/15 04:17:46;;;;;;;65.70;23.40;;;12.70;99.90;;;;;;5054043;28;20256;-60
2022/09/15 04:20:13;;;;;;;62.90;22.67;;;12.80;99.90;;;;;;5054076;28;20213;-60
2022/09/15 04:22:40;;;;;;;57.37;21.73;;;12.80;99.90;;;;;;5054186;28;20221;-60
2022/09/15 04:25:08;;;;;;;56.20;22.37;;;12.80;99.90;;;;;;5053772;28;20276;-60
2022/09/15 04:27:35;;;;;;;59.40;23.00;;;12.70;99.90;;;;;;5055115;28;20215;-60
2022/09/15 04:30:02;;;;;;;58.30;23.17;;;12.80;99.90;;;;;;5057927;28;20209;-60
2022/09/15 04:32:29;;;;;;;58.00;22.77;;;12.80;99.90;;;;;;5056083;28;20201;-60
2022/09/15 04:34:57;;;;;;;61.67;22.90;;;12.70;99.90;;;;;;5055184;28;20205;-60
2022/09/15 04:37:24;;;;;;;55.13;22.97;;;12.70;99.90;;;;;;5053490;28;20286;-58
2022/09/15 04:39:51;;;;;;;55.37;21.80;;;12.70;99.90;;;;;;5052824;28;20235;-60
2022/09/15 04:42:19;;;;;;;60.53;22.83;;;12.70;99.90;;;;;;5036388;28;20267;-59
2022/09/15 04:44:46;;;;;;;61.40;21.87;;;12.60;99.90;;;;;;5036563;28;20210;-60
2022/09/15 04:47:13;;;;;;;74.80;24.73;;;12.70;99.90;;;;;;5035394;28;20206;-60
2022/09/15 04:49:39;;;;;;;59.83;21.97;;;12.60;99.90;;;;;;5036004;28;20214;-61
2022/09/15 04:52:07;;;;;;;69.13;24.17;;;12.60;99.90;;;;;;5036987;28;20256;-60
2022/09/15 04:54:34;;;;;;;61.47;23.93;;;12.60;99.90;;;;;;5035675;28;20206;-60
2022/09/15 04:57:01;;;;;;;61.67;23.10;;;12.60;99.90;;;;;;5035936;28;20236;-60
2022/09/15 04:59:28;;;;;;;60.53;22.83;;;12.60;99.90;;;;;;5035544;28;20211;-60
2022/09/15 05:01:55;;;;;;;64.57;23.03;;;12.60;99.90;;;;;;5035751;28;20275;-60
2022/09/15 05:04:22;;;;;;;72.90;24.07;;;12.60;99.90;;;;;;5034716;28;20243;-60
2022/09/15 05:06:48;;;;;;;62.33;23.53;;;12.60;99.90;;;;;;5034760;28;20713;-60
2022/09/15 05:09:16;;;;;;;62.20;23.37;;;12.70;99.90;;;;;;5035544;28;20205;-60
2022/09/15 05:11:43;;;;;;;61.00;23.03;;;12.70;99.90;;;;;;5036072;28;20206;-60
2022/09/15 05:14:11;;;;;;;63.30;22.30;;;12.60;99.90;;;;;;5035085;28;20237;-66
2022/09/15 05:16:38;;;;;;;57.17;23.20;;;12.60;99.90;;;;;;5032425;28;20288;-67
2022/09/15 05:19:05;;;;;;;58.33;23.27;;;12.70;99.90;;;;;;5032359;28;20276;-66
2022/09/15 05:21:33;;;;;;;54.93;21.97;;;12.70;99.90;;;;;;5032065;28;20206;-65
2022/09/15 05:23:59;;;;;;;60.37;21.73;;;12.70;99.90;;;;;;5045908;28;20742;-65
2022/09/15 05:26:29;;;;;;;60.90;24.03;;;12.80;99.90;;;;;;5051119;28;20229;-65
2022/09/15 05:28:56;;;;;;;59.07;21.63;;;12.80;99.90;;;;;;5052844;28;20581;-62
2022/09/15 05:31:24;;;;;;;58.00;23.43;;;12.90;99.90;;;;;;5052289;28;20266;-63
2022/09/15 05:33:52;;;;;;;52.80;21.87;;;12.80;99.90;;;;;;5051884;28;20212;-61
2022/09/15 05:36:22;;;;;;;57.17;24.27;;;12.80;99.90;;;;;;5052050;28;20218;-61
2022/09/15 05:38:48;;;;;;;55.10;22.67;;;12.90;99.90;;;;;;5052509;28;20209;-64
2022/09/15 05:41:17;;;;;;;53.40;22.40;;;12.90;99.90;;;;;;5052059;28;20210;-61
2022/09/15 05:43:46;;;;;;;60.00;21.00;;;12.90;99.90;;;;;;5051859;28;20240;-62
2022/09/15 05:46:13;;;;;;;53.23;22.37;;;13.00;99.90;;;;;;5051584;28;20573;-63
2022/09/15 05:48:40;;;;;;;50.63;21.90;;;13.10;99.90;;;;;;5051789;28;20694;-62
2022/09/15 05:51:07;;;;;;;53.83;23.70;;;13.10;99.90;;;;;;5050705;28;20624;-62
2022/09/15 05:53:35;;;;;;;64.70;24.03;;;13.20;99.90;;;;;;5050286;28;20201;-65
2022/09/15 05:56:05;;;;;;;53.10;22.33;;;13.20;99.90;;;;;;5051543;28;20275;-67
2022/09/15 05:58:32;;;;;;;51.67;21.50;;;13.30;99.90;;;;;;5050934;28;20617;-61
2022/09/15 06:01:06;;;;;;;59.03;22.73;;;13.30;99.90;;;;;;5051689;28;20263;-62
2022/09/15 06:03:34;;;;;;;56.97;23.33;;;13.40;99.90;;;;;;5051660;28;20205;-61
2022/09/15 06:06:01;;;;;;;52.27;21.20;;;13.40;99.90;;;;;;5051222;28;20229;-62
2022/09/15 06:08:30;;;;;;;58.93;22.30;;;13.40;99.90;;;;;;5051714;28;20564;-64
2022/09/15 06:11:01;;;;;;;58.17;22.87;;;13.50;99.90;;;;;;5051282;28;20206;-64
2022/09/15 06:13:28;;;;;;;50.77;23.20;;;13.70;99.90;;;;;;5051632;28;20206;-64
2022/09/15 06:15:54;;;;;;;64.03;25.40;;;13.90;99.90;;;;;;5042318;28;20221;-65
2022/09/15 06:18:22;;;;;;;48.53;21.87;;;14.00;99.90;;;;;;5047466;28;20210;-64
2022/09/15 06:20:49;;;;;;;53.43;21.97;;;14.00;99.90;;;;;;5050506;28;20216;-64
2022/09/15 06:23:16;;;;;;;54.30;21.17;;;14.00;99.90;;;;;;5050499;28;20644;-68
2022/09/15 06:25:44;;;;;;;50.23;22.03;;;14.10;99.90;;;;;;5050542;28;20283;-67
2022/09/15 06:28:10;;;;;;;53.00;24.10;;;14.20;99.90;;;;;;5050105;28;20680;-67
2022/09/15 06:30:39;;;;;;;52.00;20.93;;;14.30;99.90;;;;;;5051190;28;20213;-66
2022/09/15 06:33:05;;;;;;;47.70;21.63;;;14.30;99.90;;;;;;5050422;28;20255;-66
2022/09/15 06:35:33;;;;;;;49.00;22.70;;;14.30;99.90;;;;;;5050789;28;20271;-64
2022/09/15 06:38:00;;;;;;;40.07;19.40;;;14.40;99.90;;;;;;5054086;28;20271;-63
2022/09/15 06:40:26;;;;;;;41.03;20.97;;;14.30;99.90;;;;;;5055012;28;20217;-63
2022/09/15 06:42:55;;;;;;;45.03;21.30;;;14.40;99.90;;;;;;5054948;28;20236;-64
2022/09/15 06:45:22;;;;;;;51.33;22.57;;;14.40;99.90;;;;;;5054617;28;20222;-64
2022/09/15 06:47:51;;;;;;;38.20;21.10;;;14.40;99.90;;;;;;5054506;28;20209;-63
2022/09/15 06:50:17;;;;;;;36.67;18.93;;;14.50;99.90;;;;;;5054494;28;20728;-63
2022/09/15 06:52:45;;;;;;;43.50;19.63;;;14.60;99.90;;;;;;5054955;28;20209;-62
2022/09/15 06:55:12;;;;;;;43.43;20.70;;;14.60;99.90;;;;;;5054217;28;20240;-64
2022/09/15 06:57:39;;;;;;;35.57;19.97;;;14.60;99.90;;;;;;5054222;28;20284;-61
2022/09/15 07:00:06;;;;;;;39.23;19.27;;;14.60;99.90;;;;;;5054315;28;20577;-62
2022/09/15 07:02:33;;;;;;;38.57;19.27;;;14.60;99.90;;;;;;5054749;28;20205;-66
2022/09/15 07:05:00;;;;;;;33.07;17.57;;;14.60;99.90;;;;;;5054696;28;20201;-67
2022/09/15 07:07:27;;;;;;;31.97;18.57;;;14.70;99.90;;;;;;5053606;28;20230;-66
2022/09/15 07:09:55;;;;;;;30.87;16.50;;;14.70;99.90;;;;;;5054183;28;20209;-64
2022/09/15 07:12:22;;;;;;;32.40;16.70;;;14.70;99.90;;;;;;5054451;28;20210;-63
2022/09/15 07:14:48;;;;;;;33.03;18.53;;;14.80;99.90;;;;;;5054500;28;20214;-60
2022/09/15 07:17:15;;;;;;;29.10;17.73;;;14.80;99.90;;;;;;5053658;28;20202;-60
2022/09/15 07:19:42;;;;;;;30.13;16.53;;;14.80;99.90;;;;;;5053927;28;20221;-60
2022/09/15 07:22:10;;;;;;;29.07;18.23;;;14.70;99.90;;;;;;5054411;28;20237;-59
2022/09/15 07:24:37;;;;;;;31.60;17.77;;;14.60;99.90;;;;;;5054592;28;20210;-61
2022/09/15 07:27:07;;;;;;;29.93;19.33;;;14.70;99.90;;;;;;5054009;28;20294;-61
2022/09/15 07:29:33;;;;;;;29.97;17.30;;;14.70;99.90;;;;;;5053601;28;20202;-61
2022/09/15 07:32:00;;;;;;;26.23;16.57;;;14.70;99.90;;;;;;5054154;28;20206;-60
2022/09/15 07:34:27;;;;;;;32.90;17.50;;;14.60;99.90;;;;;;5053977;28;20205;-61
2022/09/15 07:36:54;;;;;;;30.03;16.87;;;14.50;99.90;;;;;;5053709;28;20222;-59
2022/09/15 07:39:20;;;;;;;31.57;17.03;;;14.50;99.90;;;;;;5053413;28;20213;-60
2022/09/15 07:41:47;;;;;;;29.47;17.70;;;14.60;99.90;;;;;;5054035;28;20202;-61
2022/09/15 07:44:15;;;;;;;31.60;17.90;;;14.60;99.90;;;;;;5053980;28;20236;-61
2022/09/15 07:46:42;;;;;;;33.53;18.10;;;14.50;99.90;;;;;;5053357;28;20230;-66
2022/09/15 07:49:10;;;;;;;30.70;17.03;;;14.60;99.90;;;;;;5052774;28;20284;-65
2022/09/15 07:51:36;;;;;;;30.77;17.63;;;14.60;99.90;;;;;;5053182;28;20618;-65
2022/09/15 07:54:03;;;;;;;28.20;15.83;;;14.80;99.90;;;;;;5053659;28;20675;-65
2022/09/15 07:56:30;;;;;;;31.57;16.33;;;14.90;99.90;;;;;;5053366;28;20256;-65
2022/09/15 07:58:57;;;;;;;30.97;14.80;;;15.00;99.90;;;;;;5053457;28;20734;-63
2022/09/15 08:01:25;;;;;;;25.17;14.10;;;14.90;99.90;;;;;;5053380;28;20228;-63
2022/09/15 08:03:52;;;;;;;23.97;13.50;;;15.00;99.90;;;;;;5053197;28;20209;-63
2022/09/15 08:06:21;;;;;;;21.00;11.47;;;15.20;99.90;;;;;;5053094;28;20233;-62
2022/09/15 08:08:47;;;;;;;16.70;10.83;;;15.20;99.90;;;;;;5053152;28;20205;-63
2022/09/15 08:11:17;;;;;;;19.57;11.03;;;15.20;99.90;;;;;;5053719;28;20210;-63
2022/09/15 08:13:43;;;;;;;14.80;10.03;;;15.30;99.90;;;;;;5052959;28;20210;-65
2022/09/15 08:16:12;;;;;;;19.03;10.70;;;15.30;99.90;;;;;;5053039;28;20226;-64
2022/09/15 08:18:41;;;;;;;16.43;9.80;;;15.40;99.90;;;;;;5053204;28;20205;-65
2022/09/15 08:21:10;;;;;;;14.47;9.33;;;15.60;99.90;;;;;;5053609;28;20230;-62
2022/09/15 08:23:38;;;;;;;12.70;8.37;;;15.60;99.90;;;;;;5046472;28;20586;-63
2022/09/15 08:26:06;;;;;;;13.13;7.80;;;15.60;99.90;;;;;;5052416;28;20230;-61
2022/09/15 08:28:33;;;;;;;13.97;7.87;;;15.50;99.90;;;;;;5052805;28;20351;-60
2022/09/15 08:31:00;;;;;;;13.80;7.30;;;15.60;99.90;;;;;;5051769;28;20201;-60
2022/09/15 08:33:27;;;;;;;14.33;6.93;;;15.70;99.90;;;;;;5052859;28;20292;-61
2022/09/15 08:35:59;;;;;;;10.50;6.07;;;15.90;99.90;;;;;;5052376;28;20233;-61
2022/09/15 08:38:26;;;;;;;11.60;5.77;;;15.80;99.90;;;;;;5052855;28;20209;-61
2022/09/15 08:40:58;;;;;;;9.77;6.17;;;15.90;99.90;;;;;;5052574;28;20260;-65
2022/09/15 08:43:30;;;;;;;13.43;6.00;;;16.00;99.90;;;;;;5052104;28;20210;-65
2022/09/15 08:46:02;;;;;;;9.77;4.00;;;16.10;99.90;;;;;;5052669;28;20288;-64
2022/09/15 08:48:40;;;;;;;9.30;3.70;;;16.00;18.50;;;;;;5052395;28;20296;-65
2022/09/15 08:51:15;;;;;;;5.60;3.60;;;16.10;1.00;;;;;;5052676;28;20612;-66
2022/09/15 08:53:46;;;;;;;9.30;4.40;;;16.10;1.00;;;;;;5052071;28;20213;-66
2022/09/15 08:56:16;;;;;;;7.07;3.60;;;16.20;12.50;;;;;;5052275;28;20238;-65
2022/09/15 08:58:44;;;;;;;5.70;3.53;;;16.20;1.00;;;;;;5052072;28;20201;-65
2022/09/15 09:01:21;;;;;;;6.67;3.07;;;16.00;1.00;;;;;;5051384;28;20214;-66
2022/09/15 09:04:11;;;;;;;10.33;3.20;;;16.00;1.00;;;;;;5052266;28;20212;-62
2022/09/15 09:06:50;;;;;;;12.20;2.60;;;16.20;1.00;;;;;;5045640;28;20298;-61
2022/09/15 09:09:29;;;;;;;6.00;3.07;;;16.20;1.00;;;;;;5051908;28;20205;-59
2022/09/15 09:12:09;;;;;;;4.60;1.87;;;16.30;1.00;;;;;;5052132;28;20206;-60
2022/09/15 09:14:47;;;;;;;6.53;2.27;;;16.40;1.00;;;;;;5052331;28;20212;-60
2022/09/15 09:17:30;;;;;;;6.53;2.20;;;16.30;1.00;;;;;;5050785;28;20733;-62
2022/09/15 09:20:21;;;;;;;5.17;2.10;;;16.30;99.90;;;;;;5052013;28;20618;-62
2022/09/15 09:22:52;;;;;;;8.33;2.10;;;16.30;99.90;;;;;;5051880;28;20255;-61
2022/09/15 09:25:21;;;;;;;8.07;1.77;;;16.30;99.90;;;;;;5051903;28;20252;-61
2022/09/15 09:27:48;;;;;;;7.30;2.10;;;16.30;99.90;;;;;;5051281;28;20229;-60
2022/09/15 09:30:18;;;;;;;6.27;1.90;;;16.30;1.00;;;;;;5051702;28;20675;-60
2022/09/15 09:32:49;;;;;;;6.17;2.10;;;16.30;99.90;;;;;;5051723;28;20252;-61
2022/09/15 09:35:22;;;;;;;4.80;1.60;;;16.40;99.90;;;;;;5051811;28;20252;-61
2022/09/15 09:37:52;;;;;;;7.07;2.00;;;16.40;99.90;;;;;;5051017;28;20202;-60
2022/09/15 09:40:19;;;;;;;10.97;1.70;;;16.40;1.00;;;;;;5051872;28;20217;-62
2022/09/15 09:42:46;;;;;;;8.90;1.97;;;16.40;1.00;;;;;;5051631;28;20259;-66
2022/09/15 09:45:17;;;;;;;7.07;1.60;;;16.50;99.90;;;;;;5050930;28;20226;-66
2022/09/15 09:47:45;;;;;;;6.00;1.57;;;16.60;19.80;;;;;;5050891;28;20734;-66
2022/09/15 09:50:33;;;;;;;5.10;1.80;;;16.50;1.00;;;;;;5050786;28;20267;-66
2022/09/15 09:53:18;;;;;;;8.63;1.97;;;16.50;99.90;;;;;;5051157;28;20244;-65
2022/09/15 09:55:45;;;;;;;9.50;2.30;;;16.70;99.90;;;;;;5051345;28;20237;-68
2022/09/15 09:58:17;;;;;;;4.73;1.30;;;16.80;55.00;;;;;;5051729;28;20243;-67
2022/09/15 10:00:44;;;;;;;5.43;1.23;;;16.90;1.00;;;;;;5050930;28;20633;-66
2022/09/15 10:03:14;;;;;;;7.27;1.60;;;17.00;1.00;;;;;;5051233;28;20668;-66
2022/09/15 10:05:41;;;;;;;6.97;1.17;;;17.00;99.90;;;;;;5051605;28;20642;-63
2022/09/15 10:08:16;;;;;;;5.53;1.63;;;16.80;99.90;;;;;;5050235;28;20233;-61
2022/09/15 10:10:50;;;;;;;3.27;1.33;;;16.60;99.90;;;;;;5042603;28;20212;-60
2022/09/15 10:13:17;;;;;;;2.53;1.20;;;16.50;1.00;;;;;;5032777;28;20216;-65
2022/09/15 10:15:52;;;;;;;4.57;1.30;;;16.40;1.00;;;;;;5044638;28;20229;-66
2022/09/15 10:18:34;;;;;;;7.20;1.40;;;16.40;1.00;;;;;;5050804;28;20206;-64
2022/09/15 10:21:04;;;;;;;4.27;1.17;;;16.50;99.90;;;;;;5050988;28;20274;-65
2022/09/15 10:23:33;;;;;;;7.63;1.17;;;16.50;99.90;;;;;;5050619;28;20214;-60
2022/09/15 10:26:19;;;;;;;6.93;1.40;;;16.60;1.00;;;;;;5050665;28;20225;-61
2022/09/15 10:29:10;;;;;;;3.43;1.00;;;16.50;1.00;;;;;;5050158;28;20229;-61
2022/09/15 10:31:37;;;;;;;6.60;1.30;;;16.40;1.00;;;;;;5050890;28;20292;-63
2022/09/15 10:34:25;;;;;;;8.87;1.30;;;16.40;1.00;;;;;;5050715;28;20292;-61
2022/09/15 10:36:54;;;;;;;4.33;1.13;;;16.40;99.90;;;;;;5050636;28;20574;-61
2022/09/15 10:39:31;;;;;;;3.10;1.57;;;16.30;1.00;;;;;;5050697;28;20205;-62
2022/09/15 10:42:05;;;;;;;4.20;1.40;;;16.30;99.90;;;;;;5050636;28;20583;-61
2022/09/15 10:44:43;;;;;;;7.57;1.70;;;16.20;99.90;;;;;;5049509;28;21001;-61
2022/09/15 10:47:25;;;;;;;5.07;1.57;;;16.20;99.90;;;;;;5050085;28;20237;-62
2022/09/15 10:50:06;;;;;;;8.87;2.03;;;16.10;3.90;;;;;;5050555;28;20209;-61
2022/09/15 10:52:41;;;;;;;5.13;1.40;;;16.00;1.00;;;;;;5050357;28;20212;-64
2022/09/15 10:55:22;;;;;;;7.20;1.83;;;15.90;1.00;;;;;;5036012;28;20728;-60
2022/09/15 10:58:02;;;;;;;8.63;1.40;;;15.80;1.00;;;;;;5031373;28;20669;-61
2022/09/15 11:00:37;;;;;;;4.47;1.40;;;15.60;1.00;;;;;;5050686;28;20205;-61
2022/09/15 11:03:27;;;;;;;3.90;1.30;;;15.60;1.00;;;;;;5050145;28;20205;-61
2022/09/15 11:06:05;;;;;;;4.13;1.50;;;15.60;1.00;;;;;;5050230;28;20348;-61
2022/09/15 11:08:50;;;;;;;4.70;1.63;;;15.50;99.90;;;;;;5050246;28;20625;-62
2022/09/15 11:11:29;;;;;;;6.60;1.57;;;15.00;99.90;;;;;;5041250;28;20241;-62
2022/09/15 11:14:06;;;;;;;6.40;1.50;;;14.60;1.00;;;;;;5030801;28;20206;-60
2022/09/15 11:16:43;;;;;;;6.33;1.70;;;14.40;1.00;;;;;;5029872;28;20229;-61
2022/09/15 11:19:27;;;;;;;4.60;1.87;;;14.20;1.00;;;;;;5030349;28;20334;-62
2022/09/15 11:21:57;;;;;;;6.60;2.33;;;14.00;15.70;;;;;;5029825;28;20217;-61
2022/09/15 11:24:31;;;;;;;4.03;1.70;;;13.90;35.10;;;;;;5033174;28;20629;-61
2022/09/15 11:27:03;;;;;;;6.73;1.70;;;13.80;64.20;;;;;;5033361;28;20716;-62
2022/09/15 11:29:35;;;;;;;3.53;1.57;;;13.80;89.00;;;;;;5033931;28;20214;-60
2022/09/15 11:32:06;;;;;;;4.37;1.47;;;13.90;62.50;;;;;;5033881;28;20210;-65
2022/09/15 11:34:36;;;;;;;3.60;1.13;;;13.90;61.00;;;;;;5033787;28;20209;-63
2022/09/15 11:37:11;;;;;;;3.90;1.30;;;14.20;99.90;;;;;;5034352;28;20230;-63
2022/09/15 11:39:41;;;;;;;4.80;1.20;;;14.30;90.30;;;;;;5033175;28;20699;-63
2022/09/15 11:42:14;;;;;;;4.10;1.10;;;14.40;50.70;;;;;;5034022;28;20206;-66
2022/09/15 11:44:43;;;;;;;4.30;1.20;;;14.60;21.90;;;;;;5033344;28;20257;-65
2022/09/15 11:47:22;;;;;;;4.43;1.13;;;14.70;17.80;;;;;;5034022;28;20234;-65
2022/09/15 11:49:52;;;;;;;3.20;1.10;;;14.90;11.00;;;;;;5033429;28;20202;-63
2022/09/15 11:52:41;;;;;;;6.07;0.90;;;15.10;3.10;;;;;;5033891;28;20297;-67
2022/09/15 11:55:19;;;;;;;4.73;1.23;;;15.30;1.00;;;;;;5031669;28;20230;-65
2022/09/15 11:57:54;;;;;;;4.13;0.83;;;15.30;1.00;;;;;;5033726;28;20206;-64
2022/09/15 12:00:21;;;;;;;3.97;1.00;;;15.50;1.00;;;;;;5033725;28;20283;-63
2022/09/15 12:02:53;;;;;;;5.37;0.67;;;15.70;1.00;;;;;;5033443;28;20214;-61
2022/09/15 12:05:24;;;;;;;3.10;1.20;;;15.80;1.00;;;;;;5033407;28;20253;-63
2022/09/15 12:07:55;;;;;;;2.90;1.20;;;16.00;1.00;;;;;;5032649;28;20237;-63
2022/09/15 12:10:29;;;;;;;4.83;1.50;;;16.10;1.00;;;;;;5033267;28;20677;-64
2022/09/15 12:12:59;;;;;;;4.10;1.20;;;16.00;1.00;;;;;;5033080;28;20646;-65
2022/09/15 12:15:26;;;;;;;4.40;1.33;;;16.10;1.00;;;;;;5033427;28;20607;-62
2022/09/15 12:18:03;;;;;;;2.53;1.40;;;16.30;1.00;;;;;;5032865;28;20237;-66
2022/09/15 12:20:37;;;;;;;7.47;1.90;;;16.40;1.00;;;;;;5033024;28;20625;-61
2022/09/15 12:23:16;;;;;;;6.90;1.67;;;16.50;1.00;;;;;;5033553;28;20274;-64
2022/09/15 12:25:58;;;;;;;6.00;1.50;;;16.80;1.00;;;;;;5033278;28;20234;-65
2022/09/15 12:28:53;;;;;;;5.20;1.27;;;16.80;1.00;;;;;;5045773;28;20225;-64
2022/09/15 12:31:35;;;;;;;5.77;1.50;;;16.90;1.00;;;;;;5053739;28;20201;-60
2022/09/15 12:34:04;;;;;;;5.70;1.97;;;16.80;1.00;;;;;;5044527;28;20202;-62
2022/09/15 12:36:40;;;;;;;3.93;1.57;;;16.80;1.00;;;;;;5052519;28;20221;-62
2022/09/15 12:39:26;;;;;;;4.00;1.60;;;16.80;1.00;;;;;;5052562;28;20731;-63
2022/09/15 12:41:56;;;;;;;3.73;1.80;;;16.70;1.00;;;;;;5052705;28;20201;-61
2022/09/15 12:44:31;;;;;;;7.60;1.80;;;16.50;99.90;;;;;;5053007;28;20217;-61
2022/09/15 12:47:00;;;;;;;5.87;2.10;;;16.40;99.90;;;;;;5052205;28;20648;-59
2022/09/15 12:49:32;;;;;;;4.67;1.53;;;16.30;99.90;;;;;;5052209;28;20275;-63
2022/09/15 12:52:01;;;;;;;8.40;1.77;;;16.30;1.00;;;;;;5052299;28;20205;-60
2022/09/15 12:54:31;;;;;;;4.63;1.73;;;16.30;1.00;;;;;;5052551;28;20737;-61